Time;durP1;ratioP1;P1;durP2;ratioP2;P2;SDS_P1;SDS_P2;PMS_P1;PMS_P2;Temp;Humidity;BMP_temperature;BMP_pressure;BME280_temperature;BME280_humidity;BME280_pressure;Samples;Min_cycle;Max_cycle;Signal;HPM_P1;HPM_P2
2022/08/29 00:00:42;;;;;;;2.87;2.67;;;;;;;17.66;100.00;95660.25;4331749;32;20197;-54
2022/08/29 00:03:07;;;;;;;3.10;2.90;;;;;;;17.74;100.00;95661.28;4345171;32;23691;-56
2022/08/29 00:05:35;;;;;;;2.43;2.33;;;;;;;17.84;100.00;95661.66;4337789;32;20220;-57
2022/08/29 00:08:02;;;;;;;2.67;2.47;;;;;;;17.68;100.00;95658.00;4340870;32;20240;-58
2022/08/29 00:10:29;;;;;;;3.07;2.77;;;;;;;17.69;100.00;95656.87;4365009;32;20215;-53
2022/08/29 00:12:54;;;;;;;1.70;1.60;;;;;;;17.66;100.00;95665.63;4347792;32;20189;-58
2022/08/29 00:15:20;;;;;;;2.37;2.23;;;;;;;17.66;100.00;95665.63;4350056;32;20232;-51
2022/08/29 00:17:46;;;;;;;2.40;2.30;;;;;;;17.62;100.00;95672.72;4353137;32;20212;-53
2022/08/29 00:20:16;;;;;;;2.43;2.10;;;;;;;17.65;100.00;95660.59;4337448;32;20194;-53
2022/08/29 00:22:42;;;;;;;2.53;2.43;;;;;;;17.61;100.00;95665.78;4329684;32;20185;-53
2022/08/29 00:25:09;;;;;;;2.23;2.13;;;;;;;17.68;100.00;95674.09;4348272;32;23102;-56
2022/08/29 00:27:35;;;;;;;1.47;1.47;;;;;;;17.52;100.00;95665.84;4342548;32;20189;-55
2022/08/29 00:30:00;;;;;;;0.93;0.93;;;;;;;17.65;100.00;95666.75;4341746;32;20228;-53
2022/08/29 00:32:33;;;;;;;1.90;1.90;;;;;;;17.51;100.00;95671.53;4334005;32;20207;-54
2022/08/29 00:34:59;;;;;;;2.03;1.93;;;;;;;17.44;100.00;95672.09;4338947;32;20220;-53
2022/08/29 00:37:24;;;;;;;2.27;2.17;;;;;;;17.56;100.00;95668.66;4338870;32;20186;-54
2022/08/29 00:39:50;;;;;;;1.87;1.77;;;;;;;17.41;100.00;95669.28;4330138;32;20225;-54
2022/08/29 00:42:15;;;;;;;1.60;1.57;;;;;;;17.37;100.00;95671.81;4331992;32;20200;-55
2022/08/29 00:44:40;;;;;;;2.17;2.07;;;;;;;17.42;100.00;95678.91;4341797;32;20194;-53
2022/08/29 00:47:11;;;;;;;1.63;1.53;;;;;;;17.54;100.00;95676.25;4348651;32;20189;-56
2022/08/29 00:49:41;;;;;;;2.17;2.07;;;;;;;17.60;100.00;95674.16;4344874;32;20185;-54
2022/08/29 00:52:17;;;;;;;1.10;1.10;;;;;;;17.41;100.00;95671.97;4343594;32;20201;-53
2022/08/29 00:54:46;;;;;;;1.80;1.77;;;;;;;17.35;100.00;95671.37;4343822;32;20212;-54
2022/08/29 00:57:12;;;;;;;2.07;1.97;;;;;;;17.38;100.00;95672.59;4341049;32;20217;-57
2022/08/29 00:59:39;;;;;;;1.97;1.87;;;;;;;17.48;100.00;95667.62;4344428;32;20264;-56
2022/08/29 01:02:09;;;;;;;1.70;1.63;;;;;;;17.45;100.00;95662.16;4342967;32;20185;-53
2022/08/29 01:04:36;;;;;;;1.53;1.43;;;;;;;17.30;100.00;95666.19;4336606;32;20198;-57
2022/08/29 01:07:01;;;;;;;1.77;1.70;;;;;;;17.20;100.00;95660.44;4330001;32;20237;-56
2022/08/29 01:09:28;;;;;;;1.40;1.40;;;;;;;17.31;100.00;95667.75;4331247;32;20201;-54
2022/08/29 01:14:46;;;;;;;1.13;1.13;;;;;;;17.25;100.00;95663.69;4371912;32;20246;-56
2022/08/29 01:17:15;;;;;;;0.90;0.90;;;;;;;17.28;100.00;95656.91;4363186;32;20267;-56
2022/08/29 01:19:48;;;;;;;1.50;1.43;;;;;;;17.28;100.00;95657.69;4352006;32;20254;-56
2022/08/29 01:22:55;;;;;;;1.17;1.17;;;;;;;17.34;100.00;95666.31;4368231;32;20192;-55
2022/08/29 01:25:25;;;;;;;1.20;1.20;;;;;;;17.30;100.00;95670.75;4359232;32;20228;-56
2022/08/29 01:28:00;;;;;;;1.20;1.20;;;;;;;17.39;100.00;95664.22;4363495;32;20203;-56
2022/08/29 01:30:25;;;;;;;1.10;1.10;;;;;;;17.31;100.00;95666.97;4365510;32;20188;-55
2022/08/29 01:32:51;;;;;;;0.57;0.57;;;;;;;17.25;100.00;95666.38;4374339;32;20223;-58
2022/08/29 01:35:16;;;;;;;1.67;1.67;;;;;;;17.11;100.00;95669.31;4365527;32;20207;-57
2022/08/29 01:37:42;;;;;;;1.43;1.43;;;;;;;17.31;100.00;95658.94;4352004;32;20219;-55
2022/08/29 01:40:10;;;;;;;1.00;1.00;;;;;;;17.26;100.00;95659.13;4358088;32;20290;-56
2022/08/29 01:42:35;;;;;;;1.07;1.07;;;;;;;17.36;100.00;95664.09;4345178;32;20243;-56
2022/08/29 01:45:01;;;;;;;0.90;0.90;;;;;;;17.26;100.00;95654.53;4373840;32;20200;-58
2022/08/29 01:47:33;;;;;;;1.17;1.07;;;;;;;17.32;100.00;95661.28;4357606;32;20192;-58
2022/08/29 01:50:01;;;;;;;15.00;1.30;;;;;;;17.16;100.00;95661.09;4365316;32;20189;-58
2022/08/29 01:52:27;;;;;;;0.40;0.40;;;;;;;17.27;100.00;95661.47;4368852;32;20192;-56
2022/08/29 01:54:52;;;;;;;1.03;1.03;;;;;;;17.35;100.00;95654.47;4371390;32;20212;-57
2022/08/29 01:57:18;;;;;;;1.77;1.50;;;;;;;17.39;99.96;95655.41;4384784;32;20193;-58
2022/08/29 01:59:44;;;;;;;1.10;1.10;;;;;;;17.35;99.71;95646.44;4363225;32;20268;-55
2022/08/29 02:02:14;;;;;;;1.20;1.10;;;;;;;17.29;99.77;95648.53;4353402;32;20211;-57
2022/08/29 02:04:40;;;;;;;1.10;0.97;;;;;;;17.36;99.63;95653.38;4365934;32;20200;-57
2022/08/29 02:07:06;;;;;;;1.27;1.27;;;;;;;17.29;99.98;95653.09;4358139;32;20205;-57
2022/08/29 02:09:31;;;;;;;0.90;0.90;;;;;;;17.34;99.57;95659.06;4345592;32;20225;-58
2022/08/29 02:12:06;;;;;;;1.20;1.20;;;;;;;17.18;100.00;95658.88;4369203;32;20189;-56
2022/08/29 02:14:33;;;;;;;1.47;1.47;;;;;;;17.14;100.00;95649.91;4362892;32;20232;-55
2022/08/29 02:17:01;;;;;;;0.97;0.97;;;;;;;17.22;100.00;95644.81;4365016;32;20203;-54
2022/08/29 02:19:26;;;;;;;0.83;0.83;;;;;;;17.22;99.91;95652.88;4360247;32;20244;-57
2022/08/29 02:21:52;;;;;;;1.03;1.03;;;;;;;17.08;100.00;95653.88;4371175;32;20215;-57
2022/08/29 02:24:17;;;;;;;1.17;1.17;;;;;;;17.02;100.00;95655.22;4361354;32;20204;-56
2022/08/29 02:26:43;;;;;;;0.83;0.83;;;;;;;16.92;100.00;95647.53;4370745;32;20188;-58
2022/08/29 02:29:11;;;;;;;1.00;1.00;;;;;;;17.04;100.00;95652.97;4359271;32;20330;-55
2022/08/29 02:31:37;;;;;;;1.10;1.10;;;;;;;16.87;100.00;95653.06;4368465;32;20193;-55
2022/08/29 02:34:03;;;;;;;1.00;1.00;;;;;;;16.94;100.00;95648.00;4347014;32;20215;-56
2022/08/29 02:36:28;;;;;;;0.70;0.70;;;;;;;16.99;100.00;95650.50;4359974;32;20189;-57
2022/08/29 02:38:54;;;;;;;1.47;1.37;;;;;;;17.00;100.00;95652.06;4358696;32;20197;-56
2022/08/29 02:41:19;;;;;;;1.23;1.20;;;;;;;17.04;100.00;95647.59;4351784;32;20193;-57
2022/08/29 02:43:45;;;;;;;1.20;1.20;;;;;;;17.07;100.00;95651.53;4346628;32;20244;-52
2022/08/29 02:46:15;;;;;;;1.07;1.07;;;;;;;17.01;99.95;95648.28;4356962;32;20201;-56
2022/08/29 02:48:42;;;;;;;1.00;1.00;;;;;;;16.94;100.00;95649.87;4362344;32;20302;-55
2022/08/29 02:51:08;;;;;;;0.87;0.87;;;;;;;16.94;100.00;95653.34;4357725;32;23168;-56
2022/08/29 02:53:33;;;;;;;0.77;0.77;;;;;;;16.79;100.00;95646.69;4343031;32;20261;-55
2022/08/29 02:55:59;;;;;;;1.37;1.37;;;;;;;16.74;100.00;95643.38;4362108;32;20207;-54
2022/08/29 02:58:25;;;;;;;1.37;1.37;;;;;;;16.83;100.00;95652.19;4357528;32;20193;-56
2022/08/29 03:00:51;;;;;;;1.03;1.03;;;;;;;16.88;100.00;95646.59;4363322;32;20196;-53
2022/08/29 03:03:16;;;;;;;1.17;1.17;;;;;;;16.88;100.00;95651.19;4374364;32;20229;-56
2022/08/29 03:05:42;;;;;;;1.10;1.10;;;;;;;16.84;100.00;95648.34;4369175;32;20226;-55
2022/08/29 03:08:12;;;;;;;0.70;0.70;;;;;;;16.89;100.00;95653.53;4373207;32;20351;-51
2022/08/29 03:10:38;;;;;;;4.67;1.20;;;;;;;16.87;100.00;95658.44;4360638;32;21551;-54
2022/08/29 03:13:06;;;;;;;2.60;0.97;;;;;;;16.93;100.00;95651.00;4347263;32;20197;-55
2022/08/29 03:15:32;;;;;;;0.80;0.80;;;;;;;16.91;100.00;95651.31;4366847;32;20250;-54
2022/08/29 03:17:57;;;;;;;1.17;1.17;;;;;;;16.89;100.00;95650.06;4370564;32;20193;-50
2022/08/29 03:20:24;;;;;;;1.30;1.30;;;;;;;16.91;99.85;95653.22;4345136;32;20193;-54
2022/08/29 03:22:51;;;;;;;0.70;0.70;;;;;;;16.85;100.00;95655.28;4372747;32;20200;-56
2022/08/29 03:25:17;;;;;;;1.27;1.17;;;;;;;16.67;100.00;95653.81;4375618;32;20188;-54
2022/08/29 03:27:42;;;;;;;1.90;1.80;;;;;;;16.74;100.00;95659.47;4351510;32;20198;-51
2022/08/29 03:30:11;;;;;;;1.00;1.00;;;;;;;16.77;100.00;95656.16;4360649;32;20314;-54
2022/08/29 03:32:37;;;;;;;1.00;1.00;;;;;;;16.89;99.89;95655.44;4373551;32;20200;-56
2022/08/29 03:35:03;;;;;;;0.90;0.90;;;;;;;16.90;99.81;95657.00;4359665;32;20212;-52
2022/08/29 03:37:28;;;;;;;0.57;0.57;;;;;;;16.74;100.00;95656.78;4359887;32;20193;-54
2022/08/29 03:39:54;;;;;;;1.53;1.43;;;;;;;16.73;100.00;95660.56;4364228;32;20193;-54
2022/08/29 03:42:20;;;;;;;2.47;1.33;;;;;;;16.89;99.67;95660.78;4362280;32;20254;-55
2022/08/29 03:44:46;;;;;;;0.57;0.57;;;;;;;16.74;99.52;95654.09;4372286;32;20192;-54
2022/08/29 03:47:12;;;;;;;1.73;1.63;;;;;;;16.53;100.00;95658.59;4356790;32;20193;-54
2022/08/29 03:49:37;;;;;;;0.83;0.83;;;;;;;16.60;100.00;95659.69;4346728;32;20220;-54
2022/08/29 03:52:04;;;;;;;0.63;0.63;;;;;;;16.71;100.00;95654.75;4370953;32;20208;-55
2022/08/29 03:54:30;;;;;;;0.30;0.30;;;;;;;16.79;99.29;95656.59;4368663;32;20184;-56
2022/08/29 03:56:55;;;;;;;0.90;0.90;;;;;;;16.77;99.46;95653.47;4359215;32;20243;-54
2022/08/29 03:59:21;;;;;;;1.23;1.07;;;;;;;16.72;99.47;95661.69;4360567;32;20231;-53
2022/08/29 04:01:47;;;;;;;0.90;0.90;;;;;;;16.62;99.96;95660.16;4348637;32;20197;-55
2022/08/29 04:07:00;;;;;;;1.23;1.03;;;;;;;16.68;99.56;95658.06;4369414;32;20271;-51
2022/08/29 04:09:26;;;;;;;1.17;1.07;;;;;;;16.73;99.07;95663.25;4358386;32;20193;-54
2022/08/29 04:11:51;;;;;;;0.80;0.80;;;;;;;16.75;98.84;95672.53;4364965;32;20255;-53
2022/08/29 04:14:19;;;;;;;1.17;1.17;;;;;;;16.70;98.96;95671.94;4354806;32;20279;-52
2022/08/29 04:16:46;;;;;;;0.97;0.97;;;;;;;16.61;99.47;95677.31;4347307;32;20216;-52
2022/08/29 04:19:12;;;;;;;1.13;1.07;;;;;;;16.72;99.03;95677.75;4350272;32;20197;-54
2022/08/29 04:21:37;;;;;;;0.73;0.73;;;;;;;16.67;99.08;95676.03;4372532;32;20204;-53
2022/08/29 04:24:02;;;;;;;0.97;0.97;;;;;;;16.81;98.25;95673.16;4360337;32;20197;-55
2022/08/29 04:26:28;;;;;;;0.83;0.83;;;;;;;16.82;97.89;95672.03;4346110;32;20254;-54
2022/08/29 04:28:53;;;;;;;0.97;0.97;;;;;;;16.74;98.37;95676.34;4355072;32;20296;-54
2022/08/29 04:31:20;;;;;;;0.83;0.83;;;;;;;16.60;99.54;95674.97;4375662;32;20234;-57
2022/08/29 04:33:49;;;;;;;0.70;0.70;;;;;;;16.61;99.78;95673.84;4375987;32;20189;-54
2022/08/29 04:36:14;;;;;;;0.73;0.73;;;;;;;16.62;99.50;95673.53;4349943;32;20211;-54
2022/08/29 04:38:40;;;;;;;0.80;0.80;;;;;;;16.68;99.68;95677.63;4362059;32;20189;-54
2022/08/29 04:41:13;;;;;;;0.80;0.80;;;;;;;16.72;99.15;95683.12;4348249;32;20208;-55
2022/08/29 04:43:40;;;;;;;1.00;1.00;;;;;;;16.69;98.93;95686.44;4362504;32;20276;-56
2022/08/29 04:46:06;;;;;;;3.97;1.93;;;;;;;16.66;98.36;95681.72;4348304;32;20200;-53
2022/08/29 04:48:31;;;;;;;2.50;1.67;;;;;;;16.81;97.84;95691.91;4374503;32;20234;-53
2022/08/29 04:50:59;;;;;;;0.93;0.93;;;;;;;16.81;97.85;95686.56;4360644;32;20216;-54
2022/08/29 04:53:26;;;;;;;1.27;1.27;;;;;;;16.76;97.94;95690.19;4361298;32;20184;-52
2022/08/29 04:55:58;;;;;;;1.47;1.37;;;;;;;16.69;98.01;95691.78;4366072;32;20236;-55
2022/08/29 04:58:24;;;;;;;1.07;1.07;;;;;;;16.60;99.13;95696.41;4368813;32;20201;-55
2022/08/29 05:00:51;;;;;;;3.00;0.73;;;;;;;16.49;99.21;95694.06;4347207;32;20200;-53
2022/08/29 05:03:16;;;;;;;1.13;1.10;;;;;;;16.48;99.69;95707.78;4360929;32;20212;-53
2022/08/29 05:05:41;;;;;;;1.43;1.43;;;;;;;16.59;99.59;95700.19;4360713;32;20193;-56
2022/08/29 05:08:07;;;;;;;0.93;0.93;;;;;;;16.44;99.65;95701.47;4363897;32;20193;-53
2022/08/29 05:10:32;;;;;;;0.70;0.70;;;;;;;16.55;99.62;95710.75;4359317;32;20231;-56
2022/08/29 05:12:58;;;;;;;1.90;1.80;;;;;;;16.70;99.00;95701.41;4348054;32;20200;-56
2022/08/29 05:15:23;;;;;;;1.10;1.00;;;;;;;16.57;99.27;95713.09;4353076;32;20181;-53
2022/08/29 05:17:49;;;;;;;1.23;1.23;;;;;;;16.57;98.97;95713.88;4360983;32;20240;-53
2022/08/29 05:20:15;;;;;;;1.87;1.20;;;;;;;16.54;99.04;95708.38;4372325;32;20189;-56
2022/08/29 05:22:41;;;;;;;0.70;0.70;;;;;;;16.64;98.72;95706.16;4362985;32;20192;-53
2022/08/29 05:25:08;;;;;;;1.53;1.47;;;;;;;16.54;98.97;95708.38;4350866;32;20197;-52
2022/08/29 05:27:34;;;;;;;0.70;0.70;;;;;;;16.54;99.55;95711.84;4359216;32;20239;-53
2022/08/29 05:30:00;;;;;;;1.27;1.27;;;;;;;16.49;99.79;95718.16;4364823;32;20197;-55
2022/08/29 05:32:26;;;;;;;1.60;1.50;;;;;;;16.52;99.57;95721.31;4371610;32;20210;-54
2022/08/29 05:34:51;;;;;;;1.50;1.50;;;;;;;16.59;99.21;95721.59;4343508;32;20236;-55
2022/08/29 05:37:19;;;;;;;0.80;0.80;;;;;;;16.61;99.74;95708.69;4357206;32;20189;-55
2022/08/29 05:39:46;;;;;;;1.13;1.13;;;;;;;16.53;99.95;95712.16;4359505;32;20189;-53
2022/08/29 05:42:12;;;;;;;0.50;0.50;;;;;;;16.68;99.55;95711.66;4359392;32;20196;-55
2022/08/29 05:44:38;;;;;;;0.67;0.67;;;;;;;16.74;99.18;95713.06;4358603;32;20302;-54
2022/08/29 05:47:06;;;;;;;0.53;0.53;;;;;;;16.77;98.98;95707.84;4364197;32;20252;-53
2022/08/29 05:49:34;;;;;;;0.90;0.90;;;;;;;16.82;98.93;95706.88;4357048;32;20255;-53
2022/08/29 05:51:59;;;;;;;0.73;0.73;;;;;;;16.81;99.09;95702.63;4351844;32;20223;-54
2022/08/29 05:54:25;;;;;;;0.90;0.57;;;;;;;16.91;98.49;95710.28;4371260;32;20181;-52
2022/08/29 05:56:51;;;;;;;1.70;1.60;;;;;;;16.91;98.42;95712.97;4362435;32;20212;-55
2022/08/29 05:59:18;;;;;;;1.37;1.27;;;;;;;16.92;98.27;95714.53;4372951;32;20193;-51
2022/08/29 06:01:45;;;;;;;0.90;0.90;;;;;;;16.89;98.53;95723.22;4360705;32;20192;-55
2022/08/29 06:04:11;;;;;;;0.77;0.77;;;;;;;16.90;98.61;95721.31;4361838;32;20204;-54
2022/08/29 06:06:38;;;;;;;0.90;0.90;;;;;;;16.91;98.04;95721.00;4373514;32;20224;-54
2022/08/29 06:09:03;;;;;;;0.70;0.70;;;;;;;17.06;97.87;95725.81;4367865;32;20201;-53
2022/08/29 06:11:31;;;;;;;1.10;1.00;;;;;;;17.09;97.96;95727.06;4361310;32;20226;-52
2022/08/29 06:13:58;;;;;;;0.97;0.97;;;;;;;17.12;98.14;95729.09;4373334;32;20207;-55
2022/08/29 06:16:25;;;;;;;1.00;1.00;;;;;;;17.22;97.68;95725.25;4358200;32;20200;-56
2022/08/29 06:18:50;;;;;;;0.97;0.97;;;;;;;17.18;98.21;95730.47;4373329;32;20220;-54
2022/08/29 06:21:16;;;;;;;2.23;1.20;;;;;;;17.10;98.49;95724.06;4370340;32;20208;-55
2022/08/29 06:23:43;;;;;;;0.90;0.90;;;;;;;17.21;98.49;95721.00;4355108;32;20235;-54
2022/08/29 06:26:09;;;;;;;0.93;0.93;;;;;;;17.13;99.14;95715.38;4357330;32;20256;-53
2022/08/29 06:28:36;;;;;;;1.20;1.20;;;;;;;17.17;98.64;95718.97;4370705;32;20200;-54
2022/08/29 06:31:10;;;;;;;2.03;1.60;;;;;;;17.15;99.58;95717.72;4371667;32;20227;-55
2022/08/29 06:33:36;;;;;;;1.00;1.00;;;;;;;17.07;98.81;95719.34;4348307;32;20294;-55
2022/08/29 06:36:07;;;;;;;1.90;1.63;;;;;;;17.08;98.80;95728.16;4356851;32;20197;-54
2022/08/29 06:38:33;;;;;;;1.10;1.10;;;;;;;17.24;98.61;95723.03;4366342;32;20287;-54
2022/08/29 06:41:11;;;;;;;0.60;0.60;;;;;;;17.24;99.44;95723.03;4342277;32;20219;-51
2022/08/29 06:43:37;;;;;;;1.90;1.80;;;;;;;17.36;99.26;95734.63;4369375;32;20192;-54
2022/08/29 06:46:02;;;;;;;0.80;0.80;;;;;;;17.46;99.39;95728.06;4374312;32;20239;-54
2022/08/29 06:48:27;;;;;;;0.93;0.90;;;;;;;17.52;99.64;95726.78;4351315;32;20189;-56
2022/08/29 06:50:53;;;;;;;1.47;1.47;;;;;;;17.60;99.87;95725.16;4363025;32;20260;-54
2022/08/29 06:53:20;;;;;;;1.63;1.63;;;;;;;17.67;99.87;95728.88;4367875;32;20247;-56
2022/08/29 06:55:45;;;;;;;0.90;0.90;;;;;;;17.76;100.00;95734.97;4356807;32;20204;-53
2022/08/29 06:58:11;;;;;;;3.13;2.57;;;;;;;17.76;100.00;95732.28;4365843;32;20203;-54
2022/08/29 07:00:41;;;;;;;0.93;0.93;;;;;;;17.81;100.00;95740.16;4358784;32;20260;-53
2022/08/29 07:03:07;;;;;;;1.63;1.53;;;;;;;17.96;100.00;95743.34;4371994;32;20203;-54
2022/08/29 07:05:32;;;;;;;1.87;1.77;;;;;;;17.95;100.00;95747.94;4335735;32;20236;-51
2022/08/29 07:07:57;;;;;;;1.93;1.83;;;;;;;18.05;98.21;95746.75;4362012;32;20249;-53
2022/08/29 07:10:23;;;;;;;1.47;1.43;;;;;;;18.15;98.02;95743.62;4363753;32;20197;-54
2022/08/29 07:12:50;;;;;;;6.70;2.80;;;;;;;18.22;97.97;95746.56;4364137;32;20216;-55
2022/08/29 07:15:15;;;;;;;2.63;2.53;;;;;;;18.24;98.19;95746.25;4343301;32;20197;-55
2022/08/29 07:17:41;;;;;;;2.13;2.00;;;;;;;18.31;97.44;95754.53;4352812;32;20188;-51
2022/08/29 07:20:07;;;;;;;1.80;1.70;;;;;;;18.29;95.93;95754.09;4370349;32;20192;-54
2022/08/29 07:22:34;;;;;;;8.60;3.03;;;;;;;18.35;96.21;95753.53;4355900;32;20229;-56
2022/08/29 07:24:59;;;;;;;1.80;1.77;;;;;;;18.43;95.63;95750.00;4355546;32;20193;-56
2022/08/29 07:27:24;;;;;;;4.57;3.70;;;;;;;18.52;95.40;95753.34;4347319;32;20203;-56
2022/08/29 07:29:50;;;;;;;8.57;7.77;;;;;;;18.60;95.66;95753.63;4343804;32;20185;-57
2022/08/29 07:32:17;;;;;;;23.23;16.27;;;;;;;18.67;95.39;95748.50;4359530;32;20272;-55
2022/08/29 07:34:43;;;;;;;7.43;6.83;;;;;;;18.70;94.94;95748.63;4347988;32;20193;-54
2022/08/29 07:37:09;;;;;;;13.13;10.73;;;;;;;18.77;95.18;95748.06;4345883;32;20215;-59
2022/08/29 07:39:35;;;;;;;4.73;3.73;;;;;;;18.83;95.00;95752.09;4370900;32;20200;-59
2022/08/29 07:42:01;;;;;;;2.00;1.90;;;;;;;18.90;92.35;95757.72;4343999;32;20193;-59
2022/08/29 07:44:26;;;;;;;2.37;2.23;;;;;;;19.02;90.51;95752.34;4358836;32;20272;-59
2022/08/29 07:46:56;;;;;;;1.73;1.43;;;;;;;19.09;92.07;95754.47;4351775;32;20323;-59
2022/08/29 07:49:23;;;;;;;2.23;2.10;;;;;;;19.16;91.94;95758.16;4349364;32;20192;-59
2022/08/29 07:51:50;;;;;;;5.93;2.27;;;;;;;19.16;91.68;95749.28;4354734;32;20207;-59
2022/08/29 07:54:17;;;;;;;1.50;1.40;;;;;;;19.23;90.45;95761.06;4345211;32;20197;-60
2022/08/29 07:56:43;;;;;;;1.30;1.30;;;;;;;19.34;93.18;95760.59;4357257;32;20185;-59
2022/08/29 07:59:09;;;;;;;3.30;2.00;;;;;;;19.34;93.43;95765.97;4360198;32;20218;-59
2022/08/29 08:01:34;;;;;;;1.80;1.70;;;;;;;19.34;94.85;95765.97;4366313;32;20193;-59
2022/08/29 08:04:00;;;;;;;1.87;1.77;;;;;;;19.34;92.30;95771.34;4362738;32;20197;-59
2022/08/29 08:06:26;;;;;;;2.40;1.90;;;;;;;19.41;92.63;95769.69;4373135;32;20231;-59
2022/08/29 08:08:52;;;;;;;1.97;1.87;;;;;;;19.40;93.45;95770.00;4370039;32;20193;-60
2022/08/29 08:11:19;;;;;;;1.90;1.80;;;;;;;19.38;92.98;95775.72;4357585;32;20188;-59
2022/08/29 08:13:46;;;;;;;2.03;1.93;;;;;;;19.44;93.24;95771.69;4357152;32;20201;-59
2022/08/29 08:16:15;;;;;;;1.87;1.77;;;;;;;19.50;93.37;95780.38;4346203;32;20249;-59
2022/08/29 08:18:43;;;;;;;1.67;1.60;;;;;;;19.59;90.52;95775.62;4371669;32;20231;-59
2022/08/29 08:21:10;;;;;;;1.30;1.30;;;;;;;19.68;89.91;95787.06;4350057;32;20189;-59
2022/08/29 08:23:36;;;;;;;1.87;1.77;;;;;;;19.73;89.11;95789.53;4369182;32;20201;-59
2022/08/29 08:26:01;;;;;;;2.63;2.53;;;;;;;19.84;88.97;95777.16;4365432;32;20223;-59
2022/08/29 08:28:29;;;;;;;2.63;2.03;;;;;;;20.07;87.58;95782.00;4368094;32;20193;-59
2022/08/29 08:30:55;;;;;;;2.60;2.50;;;;;;;20.04;87.80;95786.19;4375249;32;20185;-59
2022/08/29 08:33:20;;;;;;;2.10;2.00;;;;;;;20.01;88.37;95773.38;4361942;32;20185;-60
2022/08/29 08:35:46;;;;;;;6.90;2.40;;;;;;;20.02;89.96;95784.94;4360642;32;20193;-59
2022/08/29 08:38:11;;;;;;;1.90;1.80;;;;;;;20.04;89.10;95782.69;4364649;32;20269;-59
2022/08/29 08:41:09;;;;;;;1.47;1.47;;;;;;;20.11;87.90;95785.59;4373387;32;20254;-59
2022/08/29 08:43:48;;;;;;;2.27;2.17;;;;;;;20.11;89.93;95783.69;4356457;32;20260;-59
2022/08/29 08:46:14;;;;;;;1.90;1.87;;;;;;;20.13;89.11;95769.88;4348850;32;20196;-54
2022/08/29 08:48:41;;;;;;;9.60;2.77;;;;;;;20.10;89.43;95776.72;4328614;32;20383;-62
2022/08/29 08:51:19;;;;;;;2.47;2.30;;;;;;;20.12;90.30;95784.47;4300287;32;20273;-61
2022/08/29 08:53:49;;;;;;;2.23;2.13;;;;;;;20.22;88.77;95781.28;4352794;32;20219;-58
2022/08/29 08:56:41;;;;;;;1.77;1.67;;;;;;;20.19;88.83;95779.25;4301055;32;20269;-59
2022/08/29 08:59:17;;;;;;;2.57;2.37;;;;;;;20.24;88.23;95776.31;4322251;32;20219;-59
2022/08/29 09:01:55;;;;;;;2.90;2.70;;;;;;;20.27;88.47;95775.66;4320933;32;20196;-58
2022/08/29 09:04:33;;;;;;;2.17;2.07;;;;;;;20.36;89.47;95772.81;4356121;32;20210;-61
2022/08/29 09:07:32;;;;;;;1.90;1.90;;;;;;;20.32;88.98;95772.72;4342678;32;20224;-59
2022/08/29 09:10:17;;;;;;;2.57;2.40;;;;;;;20.47;86.56;95773.91;4357929;32;20221;-58
2022/08/29 09:12:51;;;;;;;2.43;2.23;;;;;;;20.58;86.31;95775.72;4358528;32;20264;-59
2022/08/29 09:15:24;;;;;;;2.27;2.17;;;;;;;20.67;85.16;95777.50;4362029;32;20248;-59
2022/08/29 09:17:57;;;;;;;3.00;2.90;;;;;;;20.63;84.57;95780.09;4348210;32;20252;-62
2022/08/29 09:20:29;;;;;;;1.97;1.80;;;;;;;20.74;84.70;95783.06;4360384;32;20254;-58
2022/08/29 09:23:19;;;;;;;2.53;2.43;;;;;;;20.74;85.31;95785.78;4353427;32;20262;-59
2022/08/29 09:25:46;;;;;;;2.30;1.70;;;;;;;20.68;86.73;95779.06;4352689;32;20248;-59
2022/08/29 09:28:12;;;;;;;2.10;2.00;;;;;;;20.85;87.14;95784.13;4364801;32;20220;-59
2022/08/29 09:30:41;;;;;;;2.90;2.70;;;;;;;20.87;86.47;95777.25;4351279;32;20250;-59
2022/08/29 09:33:09;;;;;;;1.60;1.53;;;;;;;20.97;84.45;95770.56;4349185;32;20220;-58
2022/08/29 09:35:39;;;;;;;4.00;2.13;;;;;;;21.04;84.73;95778.81;4367387;32;20208;-59
2022/08/29 09:38:07;;;;;;;1.90;1.90;;;;;;;21.03;85.29;95777.25;4360132;32;20204;-59
2022/08/29 09:40:41;;;;;;;1.90;1.73;;;;;;;21.16;83.45;95784.13;4371284;32;20193;-59
2022/08/29 09:43:07;;;;;;;1.40;1.40;;;;;;;21.23;83.07;95789.72;4363147;32;20228;-58
2022/08/29 09:45:33;;;;;;;2.93;2.33;;;;;;;21.23;82.22;95784.31;4350717;32;20224;-59
2022/08/29 09:48:13;;;;;;;1.63;1.63;;;;;;;21.24;81.82;95780.47;4349313;32;20212;-59
2022/08/29 09:50:39;;;;;;;1.80;1.70;;;;;;;21.19;82.26;95780.72;4370576;32;20209;-58
2022/08/29 09:53:05;;;;;;;1.67;1.57;;;;;;;21.22;80.46;95782.75;4358080;32;20245;-59
2022/08/29 09:55:43;;;;;;;2.10;2.00;;;;;;;21.14;81.08;95781.00;4357940;32;20259;-59
2022/08/29 09:58:11;;;;;;;1.87;1.87;;;;;;;21.19;80.30;95778.03;4360315;32;20200;-59
2022/08/29 10:00:42;;;;;;;1.70;1.60;;;;;;;21.21;80.80;95775.00;4344126;32;20232;-59
2022/08/29 10:03:19;;;;;;;7.47;2.40;;;;;;;21.23;82.00;95776.22;4344728;32;20238;-59
2022/08/29 10:05:45;;;;;;;2.23;2.13;;;;;;;21.31;81.63;95773.69;4371226;32;20231;-59
2022/08/29 10:08:25;;;;;;;1.73;1.63;;;;;;;21.41;81.56;95770.44;4359523;32;20283;-58
2022/08/29 10:10:54;;;;;;;2.07;1.97;;;;;;;21.50;81.64;95771.81;4343204;32;20193;-60
2022/08/29 10:13:32;;;;;;;2.17;1.97;;;;;;;21.54;80.11;95769.19;4360596;32;20207;-58
2022/08/29 10:16:36;;;;;;;1.17;1.17;;;;;;;21.74;78.50;95775.41;4344984;32;20261;-59
2022/08/29 10:19:08;;;;;;;1.40;1.40;;;;;;;21.88;77.71;95768.38;4316909;32;20246;-59
2022/08/29 10:21:34;;;;;;;2.23;2.13;;;;;;;21.91;78.28;95770.37;4319191;33;20368;-59
2022/08/29 10:24:36;;;;;;;1.63;1.63;;;;;;;21.99;77.62;95765.13;4330772;32;20212;-59
2022/08/29 10:27:36;;;;;;;1.73;1.73;;;;;;;21.98;76.07;95768.97;4344816;32;20249;-58
2022/08/29 10:30:15;;;;;;;1.00;1.00;;;;;;;22.09;76.63;95764.59;4363596;32;20189;-58
2022/08/29 10:32:56;;;;;;;2.67;2.47;;;;;;;22.11;76.46;95767.72;4357602;32;20189;-60
2022/08/29 10:35:42;;;;;;;1.90;1.80;;;;;;;22.14;73.38;95759.69;4370310;32;20193;-59
2022/08/29 10:38:13;;;;;;;1.43;1.43;;;;;;;22.11;73.43;95763.09;4357988;32;20225;-59
2022/08/29 10:40:50;;;;;;;1.40;1.40;;;;;;;22.26;74.56;95769.56;4344100;32;20193;-58
2022/08/29 10:43:34;;;;;;;1.63;1.63;;;;;;;22.42;73.98;95778.37;4356626;32;20259;-58
2022/08/29 10:46:08;;;;;;;1.50;1.40;;;;;;;22.56;72.62;95769.75;4340553;32;20192;-59
2022/08/29 10:48:33;;;;;;;1.87;1.87;;;;;;;22.45;73.93;95769.53;4368975;32;20200;-59
2022/08/29 10:51:02;;;;;;;5.47;5.10;;;;;;;22.49;74.63;95773.09;4358808;32;20215;-60
2022/08/29 10:53:37;;;;;;;3.40;3.10;;;;;;;22.53;71.69;95770.47;4342164;32;20188;-59
2022/08/29 10:56:23;;;;;;;2.47;2.37;;;;;;;22.57;71.58;95772.09;4353027;32;20229;-59
2022/08/29 10:59:07;;;;;;;4.90;3.40;;;;;;;22.62;72.61;95771.81;4355408;32;20249;-59
2022/08/29 11:01:42;;;;;;;1.50;1.50;;;;;;;22.75;70.42;95777.03;4365838;32;20232;-59
2022/08/29 11:04:16;;;;;;;1.30;1.30;;;;;;;22.68;72.57;95769.56;4359475;32;20249;-59
2022/08/29 11:06:47;;;;;;;1.53;1.37;;;;;;;22.71;73.05;95768.06;4368990;32;20185;-59
2022/08/29 11:09:20;;;;;;;2.40;2.30;;;;;;;22.59;74.05;95771.75;4362055;32;20188;-59
2022/08/29 11:12:01;;;;;;;2.53;2.43;;;;;;;22.71;73.05;95773.47;4357855;32;20268;-59
2022/08/29 11:14:35;;;;;;;2.57;2.47;;;;;;;22.65;73.56;95766.81;4368438;32;20223;-58
2022/08/29 11:17:02;;;;;;;4.97;2.33;;;;;;;22.67;72.43;95769.91;4364003;32;20189;-59
2022/08/29 11:19:41;;;;;;;7.63;4.73;;;;;;;22.67;73.46;95762.59;4352060;32;20261;-59
2022/08/29 11:22:30;;;;;;;2.63;2.53;;;;;;;22.68;70.66;95760.66;4356075;32;20205;-59
2022/08/29 11:25:10;;;;;;;1.37;1.37;;;;;;;22.77;70.14;95750.41;4365351;32;20235;-59
2022/08/29 11:27:57;;;;;;;1.30;1.30;;;;;;;22.88;70.78;95756.78;4343563;32;20189;-59
2022/08/29 11:30:35;;;;;;;1.60;1.50;;;;;;;22.86;71.45;95757.16;4367371;32;20254;-58
2022/08/29 11:33:23;;;;;;;1.40;1.40;;;;;;;22.87;72.14;95761.41;4343403;32;20189;-58
2022/08/29 11:36:06;;;;;;;1.67;1.57;;;;;;;22.68;73.34;95757.97;4358349;32;20233;-59
2022/08/29 11:38:37;;;;;;;1.47;1.47;;;;;;;22.47;73.41;95761.84;4342173;32;20237;-59
2022/08/29 11:41:26;;;;;;;1.00;1.00;;;;;;;22.42;73.52;95755.97;4361996;32;20196;-60
2022/08/29 11:43:57;;;;;;;2.00;1.70;;;;;;;22.47;72.74;95759.12;4362733;32;20229;-59
2022/08/29 11:46:41;;;;;;;1.67;1.57;;;;;;;22.41;72.03;95757.09;4370665;32;20185;-58